Time;durP1;ratioP1;P1;durP2;ratioP2;P2;SDS_P1;SDS_P2;PMS_P1;PMS_P2;Temp;Humidity;BMP_temperature;BMP_pressure;BME280_temperature;BME280_humidity;BME280_pressure;Samples;Min_cycle;Max_cycle;Signal;HPM_P1;HPM_P2
2022/05/25 00:00:46;;;;;;;10.35;9.30;;;10.80;99.90;;;;;;5011701;28;20042;-76
2022/05/25 00:03:11;;;;;;;10.23;9.27;;;10.80;99.90;;;;;;5009163;28;20125;-76
2022/05/25 00:05:38;;;;;;;12.85;9.98;;;10.80;99.90;;;;;;5009140;28;20034;-76
2022/05/25 00:08:04;;;;;;;12.25;10.13;;;10.50;99.90;;;;;;5008339;28;20424;-77
2022/05/25 00:10:31;;;;;;;12.52;9.70;;;10.70;99.90;;;;;;5008061;28;20335;-77
2022/05/25 00:12:56;;;;;;;11.63;9.48;;;10.70;99.90;;;;;;5009660;28;20054;-77
2022/05/25 00:15:22;;;;;;;12.27;9.43;;;10.70;99.90;;;;;;5018860;28;20037;-77
2022/05/25 00:17:48;;;;;;;11.15;9.85;;;10.50;99.90;;;;;;5029260;28;20030;-77
2022/05/25 00:20:15;;;;;;;11.45;9.35;;;10.90;99.90;;;;;;5028840;28;20052;-76
2022/05/25 00:22:44;;;;;;;10.52;9.48;;;10.60;99.90;;;;;;5028675;28;20018;-76
2022/05/25 00:25:13;;;;;;;10.88;9.88;;;10.50;99.90;;;;;;5027768;28;20025;-77
2022/05/25 00:27:40;;;;;;;10.95;9.88;;;10.50;99.90;;;;;;5014103;28;20386;-77
2022/05/25 00:30:06;;;;;;;10.68;9.38;;;10.50;99.90;;;;;;5029265;28;20033;-76
2022/05/25 00:32:32;;;;;;;11.25;10.25;;;10.40;99.90;;;;;;5029154;28;20017;-76
2022/05/25 00:34:58;;;;;;;11.65;10.55;;;10.20;99.90;;;;;;5028599;28;20025;-76
2022/05/25 00:37:24;;;;;;;11.60;10.48;;;10.30;99.90;;;;;;5027799;28;20547;-77
2022/05/25 00:39:50;;;;;;;12.40;11.27;;;10.30;99.90;;;;;;5029307;28;20096;-77
2022/05/25 00:42:16;;;;;;;12.37;11.07;;;;;;;;;;5028606;28;20045;-76
2022/05/25 00:44:42;;;;;;;13.32;10.60;;;10.20;99.90;;;;;;5029197;28;20377;-77
2022/05/25 00:47:11;;;;;;;10.85;9.77;;;10.10;99.90;;;;;;5032230;28;20489;-77
2022/05/25 00:49:37;;;;;;;11.87;10.77;;;10.20;99.90;;;;;;5032616;28;20033;-77
2022/05/25 00:52:09;;;;;;;11.10;10.00;;;10.20;99.90;;;;;;5032284;28;20048;-77
2022/05/25 00:54:40;;;;;;;11.10;9.82;;;10.20;99.90;;;;;;5032620;28;20048;-76
2022/05/25 00:57:09;;;;;;;10.68;9.57;;;10.20;99.90;;;;;;5031592;28;20099;-76
2022/05/25 01:00:04;;;;;;;11.90;9.48;;;10.20;99.90;;;;;;5032465;28;20557;-76
2022/05/25 01:02:30;;;;;;;11.13;9.82;;;10.20;99.90;;;;;;5023546;28;20038;-76
2022/05/25 01:04:56;;;;;;;10.63;9.52;;;10.00;99.90;;;;;;5032144;28;20032;-77
2022/05/25 01:07:59;;;;;;;11.27;8.83;;;10.30;99.90;;;;;;5032283;28;20029;-76
2022/05/25 01:10:34;;;;;;;9.40;8.32;;;10.30;99.90;;;;;;5032618;28;20026;-76
2022/05/25 01:13:12;;;;;;;11.67;9.20;;;10.20;99.90;;;;;;5032442;28;20053;-76
2022/05/25 01:15:54;;;;;;;10.57;9.68;;;10.20;99.90;;;;;;5032399;28;20033;-76
2022/05/25 01:18:30;;;;;;;10.48;9.48;;;10.30;99.90;;;;;;5031946;28;20104;-76
2022/05/25 01:21:16;;;;;;;10.38;9.40;;;10.30;99.90;;;;;;5032742;28;20132;-76
2022/05/25 01:24:00;;;;;;;10.25;9.10;;;10.10;99.90;;;;;;5032038;28;20100;-76
2022/05/25 01:26:30;;;;;;;;;;;10.20;99.90;;;;;;5032752;28;20486;-77
2022/05/25 01:29:02;;;;;;;8.57;7.78;;;10.00;99.90;;;;;;5032585;28;19913;-76
2022/05/25 01:31:54;;;;;;;10.67;8.87;;;10.50;99.90;;;;;;5032313;28;20029;-76
2022/05/25 01:34:33;;;;;;;8.73;7.83;;;10.00;99.90;;;;;;5030460;28;20513;-76
2022/05/25 01:37:37;;;;;;;9.17;8.10;;;10.00;99.90;;;;;;5032463;28;20028;-76
2022/05/25 01:40:14;;;;;;;8.52;7.78;;;10.00;99.90;;;;;;5032265;28;20033;-76
2022/05/25 01:42:46;;;;;;;10.57;8.50;;;10.40;99.90;;;;;;5016548;28;20124;-76
2022/05/25 01:45:15;;;;;;;10.03;8.43;;;10.00;99.90;;;;;;5012345;28;20108;-76
2022/05/25 01:47:45;;;;;;;12.90;8.07;;;9.90;99.90;;;;;;5012281;28;20026;-76
2022/05/25 01:50:20;;;;;;;9.77;8.87;;;9.90;99.90;;;;;;5012244;28;20022;-76
2022/05/25 01:52:56;;;;;;;9.93;8.90;;;9.90;99.90;;;;;;5012624;28;20084;-76
2022/05/25 01:55:27;;;;;;;10.87;8.63;;;9.80;99.90;;;;;;5011734;28;20018;-76
2022/05/25 01:57:57;;;;;;;11.10;9.70;;;9.80;99.90;;;;;;5011590;28;20076;-76
2022/05/25 02:00:42;;;;;;;9.10;8.20;;;9.80;99.90;;;;;;5011705;28;20029;-76
2022/05/25 02:06:21;;;;;;;9.53;8.63;;;9.60;99.90;;;;;;5012584;28;20336;-76
2022/05/25 02:09:14;;;;;;;8.90;7.40;;;9.70;99.90;;;;;;5012177;28;20077;-76
2022/05/25 02:11:46;;;;;;;9.40;8.43;;;9.70;99.90;;;;;;5030988;28;20513;-76
2022/05/25 02:14:44;;;;;;;9.77;8.80;;;9.50;99.90;;;;;;5031496;28;20490;-76
2022/05/25 02:17:40;;;;;;;9.23;8.30;;;9.50;99.90;;;;;;4969889;28;20077;-76
2022/05/25 02:20:41;;;;;;;10.80;7.77;;;9.90;99.90;;;;;;4970105;28;20105;-76
2022/05/25 02:23:33;;;;;;;9.23;8.13;;;9.50;99.90;;;;;;4954165;28;20487;-76
2022/05/25 02:26:14;;;;;;;9.07;7.97;;;9.40;99.90;;;;;;4970222;28;20035;-76
2022/05/25 02:28:53;;;;;;;13.73;8.47;;;9.50;99.90;;;;;;4970265;28;20030;-76
2022/05/25 02:31:25;;;;;;;8.80;7.97;;;9.40;99.90;;;;;;4969447;28;20030;-76
2022/05/25 02:33:55;;;;;;;10.53;8.37;;;9.40;99.90;;;;;;4970321;28;20041;-76
2022/05/25 02:36:22;;;;;;;9.67;8.67;;;9.40;99.90;;;;;;4969874;28;20035;-76
2022/05/25 02:38:47;;;;;;;9.97;8.07;;;9.40;99.90;;;;;;4953864;28;20058;-76
2022/05/25 02:41:29;;;;;;;11.43;8.70;;;9.50;99.90;;;;;;4954414;28;20078;-76
2022/05/25 02:43:55;;;;;;;12.07;8.73;;;;;;;;;;4950897;29;20058;-76
2022/05/25 02:46:21;;;;;;;10.17;9.17;;;9.30;99.90;;;;;;4933835;29;20126;-76
2022/05/25 02:48:46;;;;;;;11.10;9.80;;;9.30;99.90;;;;;;4950866;29;20058;-76
2022/05/25 02:51:12;;;;;;;10.50;9.43;;;;;;;;;;4950544;29;20074;-76
2022/05/25 02:53:37;;;;;;;10.60;9.50;;;9.30;99.90;;;;;;4983431;28;20148;-76
2022/05/25 02:56:03;;;;;;;12.17;9.67;;;9.20;99.90;;;;;;5010953;28;20069;-76
2022/05/25 02:58:29;;;;;;;10.07;9.07;;;;;;;;;;5010957;28;20026;-76
2022/05/25 03:00:56;;;;;;;11.70;9.77;;;9.20;99.90;;;;;;5009358;28;20510;-76
2022/05/25 03:03:21;;;;;;;13.97;10.80;;;9.20;99.90;;;;;;5010595;28;20105;-76
2022/05/25 03:05:47;;;;;;;9.70;8.70;;;9.40;99.90;;;;;;5011024;28;20184;-76
2022/05/25 03:08:12;;;;;;;10.53;9.43;;;9.10;99.90;;;;;;5010520;28;20034;-76
2022/05/25 03:10:38;;;;;;;10.77;9.10;;;9.20;99.90;;;;;;5022608;28;20034;-76
2022/05/25 03:13:08;;;;;;;9.97;8.73;;;9.20;99.90;;;;;;5030216;28;20403;-76
2022/05/25 03:15:34;;;;;;;11.77;9.40;;;;;;;;;;5029949;28;20063;-76
2022/05/25 03:18:00;;;;;;;9.53;8.57;;;9.20;99.90;;;;;;5018328;28;20054;-76
2022/05/25 03:20:26;;;;;;;13.63;9.43;;;;;;;;;;5008886;28;20033;-76
2022/05/25 03:22:52;;;;;;;12.10;8.70;;;9.10;99.90;;;;;;5009377;28;20033;-76
2022/05/25 03:25:18;;;;;;;9.93;8.93;;;;;;;;;;5010203;28;20400;-76
2022/05/25 03:27:44;;;;;;;9.63;8.63;;;9.10;99.90;;;;;;5010680;28;20107;-77
2022/05/25 03:30:11;;;;;;;10.63;8.40;;;9.10;99.90;;;;;;5009917;28;20026;-76
2022/05/25 03:32:37;;;;;;;11.13;8.77;;;9.20;99.90;;;;;;5010213;28;20026;-76
2022/05/25 03:35:03;;;;;;;9.97;8.97;;;9.20;99.90;;;;;;5010183;28;20022;-76
2022/05/25 03:37:29;;;;;;;9.83;8.83;;;10.00;99.90;;;;;;5028405;28;20470;-76
2022/05/25 03:39:55;;;;;;;10.83;8.27;;;9.10;99.90;;;;;;5030238;28;20113;-76
2022/05/25 03:42:22;;;;;;;11.87;8.77;;;9.20;99.90;;;;;;5029538;28;20597;-76
2022/05/25 03:44:48;;;;;;;10.00;8.83;;;;;;;;;;5029622;28;20018;-76
2022/05/25 03:47:15;;;;;;;11.43;9.63;;;9.20;99.90;;;;;;5029801;28;20032;-76
2022/05/25 03:49:40;;;;;;;9.40;8.40;;;9.30;99.90;;;;;;5028505;28;20112;-76
2022/05/25 03:52:06;;;;;;;10.80;8.53;;;9.20;99.90;;;;;;5029712;28;20080;-76
2022/05/25 03:54:32;;;;;;;11.47;8.50;;;9.20;99.90;;;;;;5029801;28;20056;-77
2022/05/25 03:56:58;;;;;;;10.83;8.90;;;9.70;99.90;;;;;;5028229;28;20390;-76
2022/05/25 03:59:24;;;;;;;9.33;8.30;;;9.30;99.90;;;;;;5029648;28;20104;-77
2022/05/25 04:01:50;;;;;;;12.27;9.10;;;9.30;99.90;;;;;;5029860;28;20033;-76
2022/05/25 04:04:16;;;;;;;10.50;9.20;;;;;;;;;;5029140;28;20028;-77
2022/05/25 04:06:41;;;;;;;10.33;8.37;;;9.30;99.90;;;;;;5017950;28;20037;-76
2022/05/25 04:09:09;;;;;;;11.00;9.03;;;9.30;99.90;;;;;;5009180;28;20057;-77
2022/05/25 04:11:35;;;;;;;11.63;10.43;;;9.30;99.90;;;;;;5008643;28;20060;-76
2022/05/25 04:14:01;;;;;;;10.97;9.77;;;9.40;99.90;;;;;;5008268;28;20152;-76
2022/05/25 04:16:27;;;;;;;10.43;9.37;;;9.50;99.90;;;;;;5009725;28;20113;-76
2022/05/25 04:18:52;;;;;;;12.13;10.43;;;9.30;99.90;;;;;;5009851;28;20030;-76
2022/05/25 04:21:18;;;;;;;10.33;8.90;;;9.40;99.90;;;;;;5008925;28;20564;-76
2022/05/25 04:23:43;;;;;;;11.87;9.40;;;9.50;99.90;;;;;;5009948;28;20391;-76
2022/05/25 04:26:09;;;;;;;11.50;9.07;;;;;;;;;;5009163;28;20045;-76
2022/05/25 04:28:35;;;;;;;13.57;10.33;;;9.50;99.90;;;;;;5009574;28;20048;-76
2022/05/25 04:31:01;;;;;;;13.90;12.20;;;9.50;99.90;;;;;;5009351;28;20112;-76
2022/05/25 04:33:29;;;;;;;12.50;11.20;;;9.60;99.90;;;;;;5009427;28;20026;-77
2022/05/25 04:35:56;;;;;;;11.37;10.20;;;9.60;99.90;;;;;;5017254;28;20040;-76
2022/05/25 04:38:21;;;;;;;12.67;9.87;;;9.60;99.90;;;;;;5028930;28;20017;-76
2022/05/25 04:40:47;;;;;;;13.97;9.90;;;9.70;99.90;;;;;;5027726;28;20038;-76
2022/05/25 04:43:18;;;;;;;11.53;10.23;;;9.40;99.90;;;;;;5029277;28;20470;-76
2022/05/25 04:45:47;;;;;;;13.30;9.90;;;9.70;99.90;;;;;;5029509;28;20048;-76
2022/05/25 04:48:13;;;;;;;13.47;11.20;;;10.00;99.90;;;;;;5028829;28;20136;-76
2022/05/25 04:50:41;;;;;;;12.07;10.93;;;9.90;99.90;;;;;;5028863;28;20029;-76
2022/05/25 04:53:09;;;;;;;12.30;11.07;;;9.90;99.90;;;;;;5027604;28;20124;-77
2022/05/25 04:58:28;;;;;;;14.80;11.57;;;10.10;99.90;;;;;;5029064;28;20041;-76
2022/05/25 05:00:54;;;;;;;12.27;10.93;;;10.00;99.90;;;;;;5029424;28;20474;-76
2022/05/25 05:03:21;;;;;;;13.03;10.87;;;10.20;99.90;;;;;;5028829;28;20163;-76
2022/05/25 05:05:46;;;;;;;15.20;12.20;;;10.60;99.90;;;;;;5024729;28;20068;-76
2022/05/25 05:08:13;;;;;;;20.07;11.87;;;10.30;99.90;;;;;;5019449;28;20073;-74
2022/05/25 05:10:39;;;;;;;13.07;10.73;;;10.60;99.90;;;;;;5028564;28;20029;-74
2022/05/25 05:13:05;;;;;;;13.40;11.40;;;10.50;99.90;;;;;;5021798;28;20095;-74
2022/05/25 05:15:40;;;;;;;15.23;12.30;;;10.60;99.90;;;;;;5009263;28;20066;-74
2022/05/25 05:18:07;;;;;;;15.43;11.60;;;10.80;99.90;;;;;;5015061;28;20029;-74
2022/05/25 05:20:32;;;;;;;12.30;10.90;;;11.20;99.90;;;;;;5027180;28;20034;-72
2022/05/25 05:22:58;;;;;;;15.98;12.20;;;;;;;;;;5028939;28;20098;-74
2022/05/25 05:25:24;;;;;;;14.23;10.75;;;11.30;99.90;;;;;;5028116;28;20051;-74
2022/05/25 05:27:49;;;;;;;11.23;10.02;;;11.00;99.90;;;;;;5027505;28;20032;-74
2022/05/25 05:30:20;;;;;;;11.77;10.53;;;11.10;99.90;;;;;;5028533;28;20025;-74
2022/05/25 05:32:46;;;;;;;12.27;10.27;;;10.70;99.90;;;;;;5029733;28;20029;-75
2022/05/25 05:35:12;;;;;;;11.93;10.50;;;11.40;99.90;;;;;;5032014;28;20025;-74
2022/05/25 05:37:50;;;;;;;11.23;9.40;;;11.40;99.90;;;;;;5032364;28;20036;-75
2022/05/25 05:40:18;;;;;;;16.05;11.75;;;11.80;99.90;;;;;;5030982;28;20041;-75
2022/05/25 05:42:47;;;;;;;17.05;10.57;;;11.60;99.90;;;;;;5032236;28;20215;-75
2022/05/25 05:45:20;;;;;;;12.43;10.57;;;11.50;99.90;;;;;;5032047;28;20029;-75
2022/05/25 05:47:51;;;;;;;11.38;9.40;;;11.60;99.90;;;;;;5032372;28;20033;-74
2022/05/25 05:50:18;;;;;;;14.35;9.80;;;11.70;99.90;;;;;;5031515;28;20091;-75
2022/05/25 05:52:44;;;;;;;13.60;10.82;;;11.50;99.90;;;;;;5012388;28;20344;-74
2022/05/25 05:55:10;;;;;;;13.20;9.45;;;11.90;99.90;;;;;;5010441;28;20029;-74
2022/05/25 05:57:37;;;;;;;8.65;7.80;;;11.70;99.90;;;;;;5020562;28;20033;-75
2022/05/25 06:00:05;;;;;;;11.40;9.38;;;11.80;99.90;;;;;;5034838;28;20048;-75
2022/05/25 06:02:31;;;;;;;12.18;8.60;;;12.00;99.90;;;;;;5024108;28;20073;-73
2022/05/25 06:04:56;;;;;;;14.38;9.05;;;12.00;99.90;;;;;;5012990;28;20548;-74
2022/05/25 06:07:22;;;;;;;12.82;9.70;;;12.00;99.90;;;;;;5032121;28;20484;-76
2022/05/25 06:09:47;;;;;;;12.98;9.80;;;12.20;99.90;;;;;;5034214;28;20057;-75
2022/05/25 06:12:14;;;;;;;13.18;10.10;;;12.10;99.90;;;;;;5025331;28;20383;-73
2022/05/25 06:14:40;;;;;;;10.32;9.23;;;12.30;99.90;;;;;;5030002;28;20028;-73
2022/05/25 06:19:50;;;;;;;;;;;12.30;99.90;;;;;;5027125;28;20052;-72
2022/05/25 06:22:18;;;;;;;13.13;8.77;;;12.30;99.90;;;;;;5028778;28;19925;-74
2022/05/25 06:24:46;;;;;;;12.20;7.90;;;12.60;99.90;;;;;;5031173;28;20020;-75
2022/05/25 06:27:13;;;;;;;12.43;9.35;;;12.50;99.90;;;;;;5031116;28;20048;-75
2022/05/25 06:29:40;;;;;;;11.30;8.18;;;13.20;99.90;;;;;;5029707;28;20030;-74
2022/05/25 06:32:08;;;;;;;10.85;8.05;;;12.40;99.90;;;;;;5026826;28;20056;-75
2022/05/25 06:34:34;;;;;;;11.32;7.30;;;12.80;99.90;;;;;;5030445;28;20053;-75
2022/05/25 06:36:59;;;;;;;12.23;8.43;;;12.60;99.90;;;;;;5027940;28;20037;-75
2022/05/25 06:39:27;;;;;;;16.02;9.65;;;12.60;99.90;;;;;;5025690;28;20486;-75
2022/05/25 06:41:52;;;;;;;10.57;8.90;;;12.70;99.90;;;;;;5028870;28;20076;-73
2022/05/25 06:44:18;;;;;;;9.65;8.35;;;12.80;99.90;;;;;;5030624;28;20496;-74
2022/05/25 06:46:44;;;;;;;9.75;7.30;;;13.50;99.90;;;;;;5025962;28;20516;-75
2022/05/25 06:49:09;;;;;;;13.90;8.35;;;12.90;99.90;;;;;;5029643;28;20025;-75
2022/05/25 06:51:35;;;;;;;11.05;7.95;;;13.10;99.90;;;;;;5029940;28;20116;-74
2022/05/25 06:54:02;;;;;;;7.80;6.70;;;13.00;99.90;;;;;;5029512;28;20072;-75
2022/05/25 06:56:28;;;;;;;9.75;7.10;;;13.10;99.90;;;;;;5029647;28;20121;-75
2022/05/25 06:58:55;;;;;;;8.85;7.35;;;13.10;99.90;;;;;;5015778;28;20113;-74
2022/05/25 07:01:21;;;;;;;11.82;8.30;;;13.10;99.90;;;;;;5015054;28;20460;-75
2022/05/25 07:03:48;;;;;;;10.82;7.25;;;13.20;99.90;;;;;;5045894;28;20029;-75
2022/05/25 07:06:15;;;;;;;8.50;6.97;;;13.40;99.90;;;;;;5028015;28;20033;-75
2022/05/25 07:08:41;;;;;;;8.32;6.60;;;13.40;99.90;;;;;;5012024;28;20502;-75
2022/05/25 07:11:07;;;;;;;13.75;7.75;;;14.50;99.90;;;;;;5020899;28;20029;-73
2022/05/25 07:13:33;;;;;;;11.05;6.80;;;13.50;99.90;;;;;;5027375;28;20041;-74
2022/05/25 07:16:02;;;;;;;8.75;7.20;;;13.70;99.90;;;;;;5026042;28;20568;-75
2022/05/25 07:18:28;;;;;;;9.63;7.22;;;13.60;99.90;;;;;;5021749;28;20032;-76
2022/05/25 07:21:06;;;;;;;8.77;7.68;;;13.80;99.90;;;;;;5020325;28;20108;-75
2022/05/25 07:23:33;;;;;;;8.93;7.45;;;14.00;99.90;;;;;;5029227;28;20021;-74
2022/05/25 07:25:59;;;;;;;9.52;6.60;;;14.30;99.90;;;;;;5028223;28;20390;-74
2022/05/25 07:28:24;;;;;;;6.72;5.53;;;14.60;99.90;;;;;;5019034;28;20040;-75
2022/05/25 07:30:53;;;;;;;9.85;6.28;;;15.00;99.90;;;;;;5014807;28;20056;-75
2022/05/25 07:33:18;;;;;;;12.70;7.68;;;15.10;99.90;;;;;;5011289;28;20038;-75
2022/05/25 07:35:44;;;;;;;9.57;6.57;;;15.40;99.90;;;;;;5027107;28;20029;-75
2022/05/25 07:38:10;;;;;;;14.13;7.65;;;15.60;99.90;;;;;;5029694;28;20068;-75
2022/05/25 07:40:38;;;;;;;8.73;6.93;;;15.80;99.90;;;;;;5012870;28;20126;-74
2022/05/25 07:43:15;;;;;;;8.80;7.88;;;15.90;99.90;;;;;;5010129;28;20026;-75
2022/05/25 07:45:41;;;;;;;9.73;6.60;;;16.10;99.90;;;;;;5027286;28;20021;-75
2022/05/25 07:48:07;;;;;;;8.80;7.00;;;16.40;99.90;;;;;;5029846;28;20029;-75
2022/05/25 07:50:34;;;;;;;9.93;8.23;;;16.40;99.90;;;;;;5023522;28;20030;-75
2022/05/25 07:53:01;;;;;;;11.38;7.43;;;16.30;99.90;;;;;;5026217;28;20091;-75
2022/05/25 07:55:27;;;;;;;8.85;8.05;;;16.30;99.90;;;;;;5026005;28;20040;-74
2022/05/25 07:57:53;;;;;;;11.73;10.00;;;16.40;99.90;;;;;;5015593;28;20369;-75
2022/05/25 08:00:21;;;;;;;12.75;10.45;;;16.40;99.90;;;;;;5015392;28;20026;-75
2022/05/25 08:05:43;;;;;;;11.85;10.07;;;16.30;99.90;;;;;;5013078;28;20104;-73
2022/05/25 08:08:18;;;;;;;12.95;10.55;;;16.30;99.90;;;;;;5009692;28;20113;-75
2022/05/25 08:10:48;;;;;;;14.23;10.52;;;16.60;99.90;;;;;;5017860;28;20187;-75
2022/05/25 08:13:17;;;;;;;11.05;9.68;;;16.80;99.90;;;;;;5029346;28;20080;-75
2022/05/25 08:15:44;;;;;;;9.70;8.70;;;17.20;99.90;;;;;;5014349;28;20022;-74
2022/05/25 08:18:11;;;;;;;14.90;9.00;;;17.10;99.90;;;;;;5018780;28;20037;-75
2022/05/25 08:20:37;;;;;;;9.00;8.10;;;17.20;99.90;;;;;;5013541;28;20033;-74
2022/05/25 08:23:07;;;;;;;9.73;8.70;;;17.30;99.90;;;;;;5022987;28;20132;-74
2022/05/25 08:25:34;;;;;;;11.57;9.20;;;17.40;99.90;;;;;;5016785;28;20083;-74
2022/05/25 08:28:00;;;;;;;10.43;8.27;;;17.30;99.90;;;;;;5009721;28;20022;-74
2022/05/25 08:30:25;;;;;;;13.98;9.63;;;17.20;99.90;;;;;;5028948;28;20045;-75
2022/05/25 08:32:51;;;;;;;12.07;9.45;;;17.60;99.90;;;;;;5029104;28;20030;-74
2022/05/25 08:35:16;;;;;;;10.73;9.63;;;17.80;99.90;;;;;;5029045;28;20032;-74
2022/05/25 08:37:42;;;;;;;8.88;8.07;;;17.90;99.90;;;;;;5015426;28;20026;-73
2022/05/25 08:40:10;;;;;;;9.85;8.85;;;17.90;99.90;;;;;;5009439;28;20483;-75
2022/05/25 08:43:08;;;;;;;12.90;11.15;;;18.00;99.90;;;;;;5009465;28;20126;-74
2022/05/25 08:45:38;;;;;;;10.48;9.43;;;18.20;99.90;;;;;;5007741;28;20450;-75
2022/05/25 08:48:06;;;;;;;10.75;9.55;;;17.90;99.90;;;;;;5009297;28;20029;-75
2022/05/25 08:50:32;;;;;;;9.82;9.02;;;18.00;99.90;;;;;;5021076;28;20109;-77
2022/05/25 08:53:01;;;;;;;9.93;9.02;;;18.00;99.90;;;;;;5029457;28;20028;-77
2022/05/25 08:55:48;;;;;;;11.13;10.23;;;18.00;99.90;;;;;;5029077;28;20026;-79
2022/05/25 08:58:14;;;;;;;13.18;11.90;;;18.30;99.90;;;;;;5027664;28;20534;-77
2022/05/25 09:00:43;;;;;;;12.10;10.65;;;18.20;99.90;;;;;;5029179;28;20026;-77
2022/05/25 09:03:17;;;;;;;11.05;10.15;;;18.10;99.90;;;;;;5028446;28;20036;-77
2022/05/25 09:05:58;;;;;;;10.70;9.80;;;18.20;99.90;;;;;;5028666;28;20107;-78
2022/05/25 09:08:24;;;;;;;11.55;10.45;;;18.30;99.30;;;;;;5028037;28;20100;-77
2022/05/25 09:10:58;;;;;;;13.25;11.85;;;18.20;99.60;;;;;;5019375;28;20034;-77
2022/05/25 09:13:47;;;;;;;13.38;12.10;;;18.30;98.90;;;;;;5031685;28;20053;-78
2022/05/25 09:16:17;;;;;;;13.38;12.02;;;18.10;99.00;;;;;;5032217;28;20025;-78
2022/05/25 09:19:03;;;;;;;13.85;12.52;;;17.80;99.80;;;;;;5032952;28;20100;-80
2022/05/25 09:21:36;;;;;;;15.60;13.98;;;17.50;99.90;;;;;;5032582;28;20040;-80
2022/05/25 09:24:08;;;;;;;16.40;14.90;;;17.60;99.90;;;;;;5032284;28;20493;-79
2022/05/25 09:26:33;;;;;;;17.90;16.15;;;17.60;99.90;;;;;;5032415;28;20065;-80
2022/05/25 09:29:04;;;;;;;21.13;19.05;;;17.60;99.70;;;;;;5032420;28;20115;-79
2022/05/25 09:31:37;;;;;;;23.17;21.08;;;17.80;99.70;;;;;;5031851;28;20026;-80
2022/05/25 09:34:08;;;;;;;24.85;22.30;;;18.10;99.50;;;;;;5032476;28;20029;-77
2022/05/25 09:36:42;;;;;;;24.75;22.40;;;18.20;99.20;;;;;;5031855;28;20390;-77
2022/05/25 09:39:23;;;;;;;26.33;23.73;;;18.10;99.40;;;;;;5032456;28;20052;-77
2022/05/25 09:41:58;;;;;;;27.13;24.63;;;18.10;99.00;;;;;;5019284;28;20121;-79
2022/05/25 09:44:24;;;;;;;24.23;21.90;;;18.40;98.90;;;;;;5012402;28;20122;-77
2022/05/25 09:47:07;;;;;;;26.13;23.45;;;18.30;98.30;;;;;;5013953;28;20195;-77
2022/05/25 09:49:49;;;;;;;22.60;20.45;;;18.50;98.60;;;;;;5032087;28;20026;-77
2022/05/25 09:52:21;;;;;;;22.48;19.25;;;18.50;97.70;;;;;;5031931;28;20134;-77
2022/05/25 09:54:56;;;;;;;24.33;21.90;;;18.50;98.00;;;;;;5032323;28;20032;-77
2022/05/25 09:57:26;;;;;;;19.35;17.42;;;18.40;97.50;;;;;;5026755;28;20029;-77
2022/05/25 09:59:56;;;;;;;19.77;17.90;;;18.40;96.60;;;;;;5012038;28;20382;-77
2022/05/25 10:02:35;;;;;;;22.48;18.52;;;18.20;97.20;;;;;;5011806;28;20434;-77
2022/05/25 10:05:23;;;;;;;18.02;16.23;;;18.40;96.90;;;;;;4995132;28;20509;-76
2022/05/25 10:07:54;;;;;;;16.40;14.80;;;18.10;97.60;;;;;;5010214;28;20160;-76
2022/05/25 10:10:26;;;;;;;16.13;14.65;;;18.30;97.30;;;;;;5011520;28;20033;-76
2022/05/25 10:13:03;;;;;;;16.30;14.77;;;18.60;97.00;;;;;;5011983;28;20048;-76
2022/05/25 10:15:36;;;;;;;15.55;14.05;;;18.90;95.80;;;;;;5010112;28;20049;-76
2022/05/25 10:18:04;;;;;;;14.65;13.15;;;19.20;96.10;;;;;;5009962;28;20033;-76
2022/05/25 10:20:45;;;;;;;15.35;13.95;;;19.40;95.40;;;;;;5011465;28;20029;-76
2022/05/25 10:23:24;;;;;;;17.08;15.40;;;19.60;95.10;;;;;;5018870;28;20136;-76
2022/05/25 10:26:10;;;;;;;11.55;10.32;;;19.80;94.10;;;;;;5031761;28;20025;-76
2022/05/25 10:28:55;;;;;;;11.65;10.75;;;20.10;94.20;;;;;;5031078;28;20037;-75
2022/05/25 10:37:07;;;;;;;9.20;8.27;;;20.00;93.40;;;;;;5031459;28;20060;-76
2022/05/25 10:39:36;;;;;;;8.88;8.05;;;19.70;93.50;;;;;;5031259;28;20025;-76
2022/05/25 10:42:45;;;;;;;7.35;6.80;;;19.40;93.40;;;;;;5029436;28;20414;-76
2022/05/25 10:45:24;;;;;;;8.38;6.82;;;19.30;93.80;;;;;;5030233;28;20418;-73
2022/05/25 10:47:49;;;;;;;7.90;7.20;;;19.10;93.20;;;;;;5030553;28;20057;-74
2022/05/25 10:50:55;;;;;;;7.30;6.60;;;19.10;93.60;;;;;;5030832;28;20072;-75
2022/05/25 10:56:56;;;;;;;6.75;6.05;;;18.90;94.20;;;;;;5025066;28;20056;-75
2022/05/25 10:59:42;;;;;;;9.10;8.32;;;18.80;93.50;;;;;;5011318;28;20025;-76
2022/05/25 11:02:45;;;;;;;11.68;10.55;;;18.60;94.60;;;;;;5039831;28;20041;-76
2022/05/25 11:05:48;;;;;;;7.90;7.25;;;18.40;94.30;;;;;;5014343;28;20029;-76
2022/05/25 11:09:00;;;;;;;8.52;7.68;;;18.20;94.80;;;;;;5030386;28;20565;-75
2022/05/25 11:11:30;;;;;;;8.32;6.43;;;18.20;94.90;;;;;;5025367;28;20117;-75
2022/05/25 11:14:20;;;;;;;6.70;5.30;;;18.40;95.10;;;;;;5010632;28;20053;-75
2022/05/25 11:17:05;;;;;;;6.57;5.05;;;18.50;94.50;;;;;;5016462;28;20104;-75
2022/05/25 11:19:58;;;;;;;3.75;2.90;;;18.50;94.40;;;;;;5030233;28;20017;-75
2022/05/25 11:22:58;;;;;;;3.70;2.50;;;18.70;94.40;;;;;;5029908;28;20122;-75
2022/05/25 11:26:03;;;;;;;3.33;2.20;;;18.70;94.20;;;;;;5029628;28;20025;-75
2022/05/25 11:28:46;;;;;;;2.67;2.28;;;18.70;94.00;;;;;;5029426;28;20052;-75
2022/05/25 11:31:34;;;;;;;2.60;1.27;;;18.80;93.80;;;;;;5029541;28;20032;-75
2022/05/25 11:34:08;;;;;;;2.40;1.38;;;19.00;93.50;;;;;;5029093;28;20021;-75
2022/05/25 11:36:51;;;;;;;1.73;1.00;;;19.10;93.50;;;;;;5029653;28;20048;-75
2022/05/25 11:39:31;;;;;;;2.33;1.48;;;19.50;92.30;;;;;;5027912;28;20017;-75
2022/05/25 11:42:03;;;;;;;2.08;1.15;;;21.80;93.10;;;;;;5028735;28;20042;-75
2022/05/25 11:44:57;;;;;;;2.75;1.42;;;19.30;91.50;;;;;;5028835;28;20116;-75
2022/05/25 11:47:53;;;;;;;2.15;1.20;;;19.30;91.40;;;;;;5028354;28;20025;-75
2022/05/25 11:50:34;;;;;;;2.92;1.58;;;19.50;91.30;;;;;;5045083;28;20032;-75
2022/05/25 11:53:26;;;;;;;1.80;1.60;;;19.90;90.90;;;;;;5029728;28;20382;-75
2022/05/25 11:56:10;;;;;;;1.85;1.38;;;20.00;90.40;;;;;;5028316;28;20036;-75
2022/05/25 11:58:47;;;;;;;2.22;1.73;;;20.10;90.90;;;;;;5029729;28;20034;-75
2022/05/25 12:01:31;;;;;;;1.88;1.30;;;20.40;89.20;;;;;;5028723;28;20044;-74
2022/05/25 12:04:12;;;;;;;;;;;20.50;90.30;;;;;;5030410;28;20034;-75
2022/05/25 12:06:58;;;;;;;2.45;1.40;;;20.70;88.80;;;;;;5029525;28;20341;-75
2022/05/25 12:09:26;;;;;;;3.85;2.17;;;21.00;87.80;;;;;;5029405;28;20087;-75
2022/05/25 12:12:29;;;;;;;2.83;1.40;;;21.00;84.10;;;;;;5027705;28;20061;-75
2022/05/25 12:15:22;;;;;;;2.70;1.20;;;21.00;84.20;;;;;;5028414;28;20120;-75
2022/05/25 12:18:12;;;;;;;1.50;1.00;;;21.10;84.00;;;;;;5023283;28;20057;-75
2022/05/25 12:20:49;;;;;;;5.07;1.80;;;21.10;83.00;;;;;;5009227;28;20026;-73
2022/05/25 12:23:21;;;;;;;4.38;1.20;;;21.20;84.50;;;;;;5009568;28;20117;-73
2022/05/25 12:25:56;;;;;;;2.85;0.90;;;21.30;83.90;;;;;;5009291;28;20467;-73
2022/05/25 12:28:31;;;;;;;2.53;1.35;;;21.40;83.50;;;;;;5009264;28;20033;-73
2022/05/25 12:31:01;;;;;;;1.42;1.20;;;21.30;82.40;;;;;;5012537;28;20021;-73
2022/05/25 12:33:27;;;;;;;2.15;1.08;;;21.10;81.10;;;;;;5028615;28;20083;-73
2022/05/25 12:35:54;;;;;;;2.50;0.90;;;21.00;81.70;;;;;;5029576;28;20022;-73
2022/05/25 12:38:20;;;;;;;2.13;1.10;;;21.00;81.50;;;;;;5028642;28;20025;-75
2022/05/25 12:40:50;;;;;;;3.33;0.90;;;20.80;81.40;;;;;;5029115;28;20034;-74
2022/05/25 12:43:34;;;;;;;2.78;1.00;;;20.80;81.50;;;;;;5032388;28;20469;-75
2022/05/25 12:49:01;;;;;;;2.97;0.80;;;20.50;80.40;;;;;;5020183;28;20443;-75
2022/05/25 12:51:36;;;;;;;3.25;1.10;;;20.30;83.00;;;;;;5013141;28;20164;-75
2022/05/25 12:54:05;;;;;;;2.55;0.70;;;20.30;82.10;;;;;;5012581;28;20034;-76
2022/05/25 12:56:37;;;;;;;3.85;1.20;;;20.00;84.90;;;;;;5013393;28;20030;-75
2022/05/25 12:59:24;;;;;;;2.85;1.05;;;19.40;85.60;;;;;;5013191;28;20054;-74
2022/05/25 13:02:11;;;;;;;2.08;1.17;;;19.50;86.60;;;;;;5015545;28;20061;-74
2022/05/25 13:04:45;;;;;;;4.68;0.93;;;19.40;85.60;;;;;;5033150;28;20033;-76
2022/05/25 13:07:22;;;;;;;1.63;0.85;;;19.60;85.40;;;;;;5032965;28;20029;-76
2022/05/25 13:09:49;;;;;;;1.17;0.60;;;20.60;87.60;;;;;;5032687;28;20060;-76
2022/05/25 13:12:39;;;;;;;2.60;0.93;;;19.70;86.00;;;;;;5032469;28;20042;-76
2022/05/25 13:15:27;;;;;;;4.32;1.17;;;19.60;85.40;;;;;;5032338;28;20037;-76
2022/05/25 13:17:57;;;;;;;3.65;0.90;;;19.50;86.90;;;;;;5032498;28;20025;-77
2022/05/25 13:20:30;;;;;;;4.97;0.60;;;19.30;87.00;;;;;;5032114;28;20423;-76
2022/05/25 13:22:58;;;;;;;2.40;0.67;;;19.20;87.80;;;;;;5020811;28;20034;-76
2022/05/25 13:25:51;;;;;;;2.25;1.00;;;19.30;88.20;;;;;;5017511;28;20018;-76
2022/05/25 13:28:28;;;;;;;3.22;0.90;;;19.30;86.30;;;;;;5016257;28;20018;-72
2022/05/25 13:31:05;;;;;;;1.10;0.70;;;19.50;87.60;;;;;;5027096;28;20034;-73
2022/05/25 13:33:58;;;;;;;2.22;0.80;;;20.00;85.10;;;;;;5029759;28;20071;-73
2022/05/25 13:36:26;;;;;;;3.88;0.80;;;20.40;85.90;;;;;;5018111;28;20026;-74